createdAt,value
2019-05-12T00:01:13.915Z,8.67
2019-05-12T00:03:45.124Z,8.64
2019-05-12T00:06:17.530Z,8.60
2019-05-12T00:08:48.752Z,8.56
2019-05-12T00:11:19.579Z,8.53
2019-05-12T00:13:50.162Z,8.59
2019-05-12T00:16:20.469Z,8.70
2019-05-12T00:18:51.499Z,8.62
2019-05-12T00:21:23.105Z,8.56
2019-05-12T00:24:11.656Z,8.50
2019-05-12T00:26:42.976Z,8.42
2019-05-12T00:29:13.533Z,8.47
2019-05-12T00:31:44.349Z,8.39
2019-05-12T00:34:15.308Z,8.33
2019-05-12T00:36:48.344Z,8.25
2019-05-12T00:39:19.378Z,8.22
2019-05-12T00:41:49.588Z,8.21
2019-05-12T00:44:20.083Z,8.21
2019-05-12T00:46:50.400Z,8.16
2019-05-12T00:49:21.141Z,8.12
2019-05-12T00:51:52.073Z,8.09
2019-05-12T00:54:22.508Z,8.06
2019-05-12T00:56:53.949Z,8.08
2019-05-12T00:59:24.290Z,8.07
2019-05-12T01:01:58.487Z,8.06
2019-05-12T01:04:29.370Z,8.09
2019-05-12T01:06:59.705Z,8.02
2019-05-12T01:09:30.269Z,7.99
2019-05-12T01:12:00.806Z,7.93
2019-05-12T01:14:32.208Z,7.94
2019-05-12T01:17:02.569Z,7.92
2019-05-12T01:19:34.016Z,8.01
2019-05-12T01:22:05.349Z,7.96
2019-05-12T01:24:37.891Z,7.95
2019-05-12T01:27:08.664Z,7.94
2019-05-12T01:29:39.918Z,7.92
2019-05-12T01:32:12.388Z,7.88
2019-05-12T01:34:43.740Z,7.86
2019-05-12T01:37:23.317Z,7.82
2019-05-12T01:39:59.708Z,7.79
2019-05-12T01:42:28.655Z,7.76
2019-05-12T01:45:00.182Z,7.71
2019-05-12T01:47:30.729Z,7.70
2019-05-12T01:50:03.077Z,7.67
2019-05-12T01:52:33.708Z,7.66
2019-05-12T01:55:07.975Z,7.63
2019-05-12T01:57:38.520Z,7.61
2019-05-12T02:00:12.488Z,7.60
2019-05-12T02:02:43.278Z,7.59
2019-05-12T02:05:15.360Z,7.58
2019-05-12T02:07:48.068Z,7.53
2019-05-12T02:10:20.210Z,7.54
2019-05-12T02:12:51.569Z,7.56
2019-05-12T02:15:23.234Z,7.48
2019-05-12T02:17:53.510Z,7.44
2019-05-12T02:20:24.983Z,7.33
2019-05-12T02:22:58.322Z,7.27
2019-05-12T02:25:29.010Z,7.24
2019-05-12T02:27:59.524Z,7.21
2019-05-12T02:30:30.965Z,7.21
2019-05-12T02:33:04.942Z,7.23
2019-05-12T02:35:35.641Z,7.21
2019-05-12T02:38:06.855Z,7.22
2019-05-12T02:40:37.818Z,7.19
2019-05-12T02:43:08.126Z,7.15
2019-05-12T02:45:39.288Z,7.15
2019-05-12T02:48:09.593Z,7.10
2019-05-12T02:50:45.204Z,7.08
2019-05-12T02:53:15.000Z,7.09
2019-05-12T02:55:47.689Z,7.08
2019-05-12T02:58:19.609Z,7.03
2019-05-12T03:00:50.321Z,7.03
2019-05-12T03:03:25.111Z,7.01
2019-05-12T03:05:59.360Z,6.98
2019-05-12T03:08:34.843Z,6.99
2019-05-12T03:11:06.101Z,6.95
2019-05-12T03:13:36.894Z,6.94
2019-05-12T03:16:09.002Z,6.93
2019-05-12T03:18:39.376Z,6.90
2019-05-12T03:21:10.014Z,6.90
2019-05-12T03:23:40.728Z,6.89
2019-05-12T03:26:15.090Z,6.86
2019-05-12T03:28:44.737Z,6.84
2019-05-12T03:31:18.308Z,6.82
2019-05-12T03:33:52.718Z,6.81
2019-05-12T03:36:20.687Z,6.81
2019-05-12T03:38:51.575Z,6.80
2019-05-12T03:41:24.882Z,6.77
2019-05-12T03:43:55.114Z,6.72
2019-05-12T03:46:25.611Z,6.67
2019-05-12T03:48:55.851Z,6.62
2019-05-12T03:51:26.664Z,6.64
2019-05-12T03:53:57.471Z,6.66
2019-05-12T03:56:27.825Z,6.65
2019-05-12T03:58:59.095Z,6.63
2019-05-12T04:01:29.409Z,6.61
2019-05-12T04:04:00.202Z,6.55
2019-05-12T04:06:34.599Z,6.55
2019-05-12T04:09:07.357Z,6.55
2019-05-12T04:11:38.112Z,6.58
2019-05-12T04:14:09.711Z,6.58
2019-05-12T04:16:40.493Z,6.56
2019-05-12T04:19:14.277Z,6.56
2019-05-12T04:21:44.746Z,6.56
2019-05-12T04:24:16.405Z,6.56
2019-05-12T04:26:46.746Z,6.54
2019-05-12T04:29:17.793Z,6.52
2019-05-12T04:31:48.075Z,6.53
2019-05-12T04:34:19.268Z,6.54
2019-05-12T04:36:51.008Z,6.57
2019-05-12T04:39:25.311Z,6.60
2019-05-12T04:41:55.336Z,6.61
2019-05-12T04:44:25.892Z,6.63
2019-05-12T04:46:56.355Z,6.65
2019-05-12T04:49:26.610Z,6.67
2019-05-12T04:51:57.785Z,6.67
2019-05-12T04:54:29.781Z,6.77
2019-05-12T04:57:00.311Z,7.11
2019-05-12T04:59:34.313Z,7.64
2019-05-12T05:02:05.441Z,8.33
2019-05-12T05:04:35.326Z,8.94
2019-05-12T05:07:05.914Z,9.62
2019-05-12T05:09:36.667Z,10.12
2019-05-12T05:12:07.025Z,10.69
2019-05-12T05:14:37.528Z,11.17
2019-05-12T05:17:07.771Z,11.71
2019-05-12T05:19:38.169Z,12.18
2019-05-12T05:22:08.699Z,12.58
2019-05-12T05:24:39.019Z,13.11
2019-05-12T05:27:09.662Z,13.52
2019-05-12T05:29:40.017Z,13.83
2019-05-12T05:32:10.752Z,14.40
2019-05-12T05:34:45.925Z,14.81
2019-05-12T05:37:14.508Z,15.15
2019-05-12T05:39:49.697Z,15.27
2019-05-12T05:42:22.104Z,15.40
2019-05-12T05:44:54.178Z,15.88
2019-05-12T05:47:27.139Z,16.25
2019-05-12T05:49:55.664Z,16.56
2019-05-12T05:52:33.159Z,16.80
2019-05-12T05:54:59.371Z,17.21
2019-05-12T05:57:29.922Z,17.53
2019-05-12T06:00:00.309Z,17.71
2019-05-12T06:02:33.744Z,18.06
2019-05-12T06:05:04.420Z,18.37
2019-05-12T06:07:39.068Z,18.60
2019-05-12T06:10:10.009Z,18.94
2019-05-12T06:12:45.498Z,19.29
2019-05-12T06:15:13.636Z,19.57
2019-05-12T06:17:44.571Z,19.97
2019-05-12T06:20:15.207Z,20.28
2019-05-12T06:22:48.732Z,20.42
2019-05-12T06:25:17.681Z,20.70
2019-05-12T06:27:51.076Z,20.92
2019-05-12T06:30:20.823Z,21.31
2019-05-12T06:32:52.400Z,21.74
2019-05-12T06:35:24.410Z,22.09
2019-05-12T06:38:01.400Z,22.33
2019-05-12T06:40:30.836Z,22.43
2019-05-12T06:43:00.234Z,22.61
2019-05-12T06:45:36.540Z,22.73
2019-05-12T06:48:03.804Z,22.93
2019-05-12T06:50:39.233Z,23.07
2019-05-12T06:53:07.899Z,23.34
2019-05-12T06:55:39.346Z,23.35
2019-05-12T06:58:10.741Z,23.26
2019-05-12T07:00:43.594Z,23.36
2019-05-12T07:03:14.298Z,23.46
2019-05-12T07:05:45.471Z,23.11
2019-05-12T07:08:17.877Z,23.58
2019-05-12T07:11:00.890Z,23.89
2019-05-12T07:13:28.282Z,23.87
2019-05-12T07:15:56.184Z,23.64
2019-05-12T07:18:32.957Z,23.56
2019-05-12T07:20:58.752Z,23.28
2019-05-12T07:23:30.178Z,23.17
2019-05-12T07:26:06.729Z,21.89
2019-05-12T07:28:36.326Z,21.88
2019-05-12T07:31:07.042Z,21.63
2019-05-12T07:33:41.378Z,21.65
2019-05-12T07:36:13.623Z,21.85
2019-05-12T07:38:45.740Z,21.64
2019-05-12T07:41:16.524Z,21.74
2019-05-12T07:43:53.993Z,22.09
2019-05-12T07:46:21.090Z,21.97
2019-05-12T07:48:53.854Z,21.36
2019-05-12T07:51:24.547Z,21.39
2019-05-12T07:53:58.859Z,21.57
2019-05-12T07:56:32.621Z,21.16
2019-05-12T07:58:59.732Z,21.20
2019-05-12T08:01:35.769Z,21.30
2019-05-12T08:04:04.543Z,20.98
2019-05-12T08:06:41.737Z,20.48
2019-05-12T08:09:08.926Z,20.53
2019-05-12T08:11:40.047Z,20.72
2019-05-12T08:14:13.698Z,20.53
2019-05-12T08:16:43.712Z,20.35
2019-05-12T08:19:23.564Z,19.95
2019-05-12T08:21:49.107Z,20.46
2019-05-12T08:24:18.841Z,20.90
2019-05-12T08:26:58.739Z,20.70
2019-05-12T08:29:24.353Z,21.10
2019-05-12T08:31:54.989Z,20.49
2019-05-12T08:34:25.401Z,19.90
2019-05-12T08:36:57.936Z,19.74
2019-05-12T08:39:28.122Z,19.85
2019-05-12T08:41:59.502Z,19.62
2019-05-12T08:44:33.828Z,20.20
2019-05-12T08:47:03.941Z,19.60
2019-05-12T08:49:50.124Z,18.66
2019-05-12T08:52:07.533Z,18.60
2019-05-12T08:54:39.569Z,19.25
2019-05-12T08:57:10.339Z,19.63
2019-05-12T08:59:40.754Z,19.72
2019-05-12T09:02:14.007Z,19.71
2019-05-12T09:04:51.500Z,20.07
2019-05-12T09:07:17.867Z,20.16
2019-05-12T09:09:49.003Z,20.44
2019-05-12T09:12:19.397Z,20.52
2019-05-12T09:14:49.690Z,20.04
2019-05-12T09:17:20.085Z,19.09
2019-05-12T09:19:55.040Z,19.13
2019-05-12T09:22:24.149Z,18.86
2019-05-12T09:24:58.338Z,19.11
2019-05-12T09:27:28.744Z,19.42
2019-05-12T09:30:07.587Z,19.60
2019-05-12T09:32:33.372Z,19.24
2019-05-12T09:35:04.226Z,20.19
2019-05-12T09:37:38.588Z,20.32
2019-05-12T09:40:08.777Z,20.65
2019-05-12T09:42:41.196Z,21.21
2019-05-12T09:45:13.595Z,21.25
2019-05-12T09:47:46.198Z,21.46
2019-05-12T09:50:20.335Z,20.94
2019-05-12T09:52:52.957Z,21.15
2019-05-12T09:55:24.806Z,20.69
2019-05-12T09:57:55.352Z,20.88
2019-05-12T10:00:30.499Z,20.91
2019-05-12T10:03:00.845Z,21.06
2019-05-12T10:05:37.551Z,21.44
2019-05-12T10:08:04.834Z,21.68
2019-05-12T10:10:40.293Z,21.79
2019-05-12T10:13:07.832Z,21.31
2019-05-12T10:15:38.367Z,20.99
2019-05-12T10:18:11.076Z,20.18
2019-05-12T10:20:41.177Z,20.59
2019-05-12T10:23:18.217Z,21.12
2019-05-12T10:25:44.867Z,20.17
2019-05-12T10:28:16.246Z,20.90
2019-05-12T10:30:52.083Z,20.28
2019-05-12T10:33:18.809Z,19.54
2019-05-12T10:35:49.164Z,19.71
2019-05-12T10:38:19.481Z,19.96
2019-05-12T10:40:50.465Z,20.31
2019-05-12T10:43:20.780Z,20.68
2019-05-12T10:45:53.787Z,20.32
2019-05-12T10:48:23.959Z,20.30
2019-05-12T10:50:55.470Z,20.41
2019-05-12T10:53:25.798Z,20.47
2019-05-12T10:55:57.248Z,20.92
2019-05-12T10:58:27.780Z,21.07
2019-05-12T11:01:05.392Z,20.88
2019-05-12T11:03:30.254Z,21.31
2019-05-12T11:06:03.190Z,20.66
2019-05-12T11:08:33.390Z,20.19
2019-05-12T11:11:04.402Z,19.84
2019-05-12T11:13:34.663Z,20.14
2019-05-12T11:16:05.359Z,19.38
2019-05-12T11:18:35.679Z,19.17
2019-05-12T11:21:06.415Z,19.17
2019-05-12T11:23:36.751Z,19.05
2019-05-12T11:26:07.790Z,19.08
2019-05-12T11:28:38.104Z,19.07
2019-05-12T11:31:08.824Z,18.93
2019-05-12T11:33:39.154Z,19.20
2019-05-12T11:36:10.077Z,18.95
2019-05-12T11:38:40.430Z,19.13
2019-05-12T11:41:18.403Z,19.21
2019-05-12T11:43:43.511Z,18.81
2019-05-12T11:46:14.200Z,19.27
2019-05-12T11:48:47.722Z,19.15
2019-05-12T11:51:20.763Z,19.01
2019-05-12T11:53:50.214Z,19.11
2019-05-12T11:56:20.538Z,19.04
2019-05-12T11:58:54.152Z,19.03
2019-05-12T12:01:26.682Z,18.89
2019-05-12T12:03:57.251Z,18.92
2019-05-12T12:06:27.943Z,18.99
2019-05-12T12:08:59.558Z,19.18
2019-05-12T12:11:30.323Z,19.05
2019-05-12T12:14:08.434Z,19.18
2019-05-12T12:16:34.098Z,18.66
2019-05-12T12:19:05.772Z,18.43
2019-05-12T12:21:40.516Z,18.47
2019-05-12T12:24:08.415Z,18.59
2019-05-12T12:26:38.861Z,18.76
2019-05-12T12:29:10.616Z,18.69
2019-05-12T12:31:48.518Z,18.55
2019-05-12T12:34:23.807Z,18.59
2019-05-12T12:36:54.367Z,18.36
2019-05-12T12:39:26.513Z,18.64
2019-05-12T12:42:00.446Z,19.00
2019-05-12T12:44:29.604Z,18.85
2019-05-12T12:47:02.438Z,18.41
2019-05-12T12:49:33.958Z,17.89
2019-05-12T12:52:04.586Z,17.82
2019-05-12T12:54:35.995Z,18.11
2019-05-12T12:57:09.969Z,18.46
2019-05-12T12:59:45.431Z,19.03
2019-05-12T13:02:14.274Z,19.02
2019-05-12T13:04:50.038Z,18.88
2019-05-12T13:07:18.345Z,18.75
2019-05-12T13:09:49.133Z,18.75
2019-05-12T13:12:21.545Z,19.06
2019-05-12T13:14:53.201Z,19.08
2019-05-12T13:17:29.066Z,18.87
2019-05-12T13:19:58.613Z,18.88
2019-05-12T13:22:29.751Z,18.66
2019-05-12T13:25:06.508Z,18.48
2019-05-12T13:27:36.719Z,18.73
2019-05-12T13:30:18.805Z,18.96
2019-05-12T13:32:41.119Z,19.45
2019-05-12T13:35:16.239Z,19.43
2019-05-12T13:37:44.540Z,18.79
2019-05-12T13:40:15.717Z,18.57
2019-05-12T13:42:46.910Z,18.46
2019-05-12T13:45:17.720Z,18.55
2019-05-12T13:47:48.279Z,18.79
2019-05-12T13:50:26.348Z,18.88
2019-05-12T13:52:54.247Z,18.89
2019-05-12T13:55:24.731Z,19.00
2019-05-12T13:57:57.776Z,18.72
2019-05-12T14:00:27.313Z,18.45
2019-05-12T14:03:04.799Z,18.40
2019-05-12T14:05:32.458Z,18.54
2019-05-12T14:08:03.935Z,18.69
2019-05-12T14:10:37.690Z,18.62
2019-05-12T14:13:14.012Z,18.49
2019-05-12T14:15:44.483Z,18.39
2019-05-12T14:18:20.442Z,18.43
2019-05-12T14:20:50.825Z,18.32
2019-05-12T14:23:20.503Z,18.52
2019-05-12T14:25:50.808Z,18.69
2019-05-12T14:28:23.436Z,18.88
2019-05-12T14:30:54.507Z,19.16
2019-05-12T14:33:29.896Z,18.91
2019-05-12T14:35:58.592Z,18.90
2019-05-12T14:38:29.918Z,18.73
2019-05-12T14:41:01.347Z,18.67
2019-05-12T14:43:34.170Z,18.55
2019-05-12T14:46:06.344Z,18.59
2019-05-12T14:48:40.161Z,18.54
2019-05-12T14:51:09.796Z,18.60
2019-05-12T14:53:41.410Z,18.85
2019-05-12T14:56:13.914Z,18.72
2019-05-12T14:58:44.287Z,18.73
2019-05-12T15:01:14.596Z,19.05
2019-05-12T15:03:47.841Z,19.07
2019-05-12T15:06:19.415Z,18.49
2019-05-12T15:08:51.233Z,18.23
2019-05-12T15:11:23.606Z,17.78
2019-05-12T15:13:55.357Z,17.72
2019-05-12T15:16:25.662Z,17.83
2019-05-12T15:18:56.717Z,17.98
2019-05-12T15:21:31.161Z,17.88
2019-05-12T15:23:59.472Z,17.94
2019-05-12T15:26:30.243Z,18.01
2019-05-12T15:29:05.397Z,18.26
2019-05-12T15:31:33.739Z,18.25
2019-05-12T15:34:05.725Z,18.51
2019-05-12T15:36:36.416Z,18.67
2019-05-12T15:39:09.313Z,18.83
2019-05-12T15:41:39.656Z,18.65
2019-05-12T15:44:10.530Z,18.04
2019-05-12T15:46:43.453Z,17.62
2019-05-12T15:49:13.596Z,17.41
2019-05-12T15:51:51.263Z,17.60
2019-05-12T15:54:16.676Z,17.53
2019-05-12T15:56:47.000Z,17.58
2019-05-12T15:59:17.809Z,17.80
2019-05-12T16:01:48.176Z,17.77
2019-05-12T16:04:19.526Z,17.96
2019-05-12T16:06:53.570Z,18.14
2019-05-12T16:09:23.776Z,18.24
2019-05-12T16:11:55.308Z,18.22
2019-05-12T16:14:30.630Z,18.18
2019-05-12T16:16:58.200Z,17.96
2019-05-12T16:19:28.755Z,17.94
2019-05-12T16:21:59.062Z,17.98
2019-05-12T16:24:30.327Z,18.03
2019-05-12T16:27:00.623Z,17.94
2019-05-12T16:29:34.002Z,17.56
2019-05-12T16:32:05.769Z,17.12
2019-05-12T16:34:45.002Z,17.17
2019-05-12T16:37:09.450Z,17.23
2019-05-12T16:39:46.593Z,17.33
2019-05-12T16:42:14.020Z,17.37
2019-05-12T16:44:44.635Z,17.40
2019-05-12T16:47:22.186Z,17.35
2019-05-12T16:49:48.062Z,17.36
2019-05-12T16:52:19.404Z,17.44
2019-05-12T16:54:54.062Z,17.41
2019-05-12T16:57:24.567Z,17.45
2019-05-12T17:00:02.342Z,17.49
2019-05-12T17:02:39.408Z,17.43
2019-05-12T17:05:06.534Z,17.46
2019-05-12T17:07:34.426Z,17.48
2019-05-12T17:10:11.750Z,17.56
2019-05-12T17:12:39.917Z,17.56
2019-05-12T17:15:11.374Z,17.54
2019-05-12T17:17:44.679Z,17.26
2019-05-12T17:20:16.717Z,17.24
2019-05-12T17:22:54.594Z,17.21
2019-05-12T17:25:19.411Z,17.02
2019-05-12T17:27:51.332Z,16.93
2019-05-12T17:30:23.913Z,16.98
2019-05-12T17:33:00.656Z,17.07
2019-05-12T17:35:31.714Z,17.28
2019-05-12T17:38:00.135Z,17.27
2019-05-12T17:40:30.664Z,17.26
2019-05-12T17:43:09.285Z,17.22
2019-05-12T17:45:35.711Z,17.13
2019-05-12T17:48:07.945Z,17.10
2019-05-12T17:50:40.492Z,17.10
2019-05-12T17:53:14.097Z,17.17
2019-05-12T17:55:50.797Z,17.04
2019-05-12T17:58:17.029Z,16.99
2019-05-12T18:00:51.854Z,16.86
2019-05-12T18:03:22.076Z,16.88
2019-05-12T18:05:53.450Z,16.85
2019-05-12T18:08:32.512Z,16.96
2019-05-12T18:10:56.732Z,16.90
2019-05-12T18:13:28.209Z,16.66
2019-05-12T18:16:03.585Z,16.69
2019-05-12T18:18:37.942Z,16.72
2019-05-12T18:21:05.320Z,16.70
2019-05-12T18:23:37.073Z,16.71
2019-05-12T18:26:11.529Z,16.64
2019-05-12T18:28:39.666Z,16.69
2019-05-12T18:31:10.823Z,16.60
2019-05-12T18:33:48.786Z,16.44
2019-05-12T18:36:14.424Z,16.33
2019-05-12T18:38:45.314Z,16.38
2019-05-12T18:41:16.036Z,16.27
2019-05-12T18:43:46.509Z,16.40
2019-05-12T18:46:17.041Z,16.36
2019-05-12T18:48:54.248Z,16.22
2019-05-12T18:51:23.622Z,16.10
2019-05-12T18:53:53.959Z,16.06
2019-05-12T18:56:25.613Z,16.07
2019-05-12T18:59:01.985Z,15.86
2019-05-12T19:01:29.682Z,15.70
2019-05-12T19:04:03.562Z,15.82
2019-05-12T19:06:33.917Z,15.75
2019-05-12T19:09:06.903Z,15.60
2019-05-12T19:11:41.982Z,15.43
2019-05-12T19:14:10.349Z,15.24
2019-05-12T19:16:43.665Z,15.24
2019-05-12T19:19:18.401Z,15.24
2019-05-12T19:21:58.517Z,15.29
2019-05-12T19:24:21.600Z,15.32
2019-05-12T19:26:54.127Z,15.27
2019-05-12T19:29:29.646Z,15.16
2019-05-12T19:31:58.301Z,15.21
2019-05-12T19:34:31.797Z,14.93
2019-05-12T19:37:00.914Z,14.71
2019-05-12T19:39:33.866Z,14.73
2019-05-12T19:42:04.010Z,14.66
2019-05-12T19:44:35.026Z,14.66
2019-05-12T19:47:05.967Z,14.46
2019-05-12T19:49:46.178Z,14.40
2019-05-12T19:52:11.068Z,14.48
2019-05-12T19:54:44.075Z,14.41
2019-05-12T19:57:22.039Z,14.20
2019-05-12T19:59:50.689Z,14.12
2019-05-12T20:02:20.489Z,14.33
2019-05-12T20:04:51.995Z,14.37
2019-05-12T20:07:25.943Z,14.08
2019-05-12T20:10:00.571Z,14.03
2019-05-12T20:12:29.049Z,14.33
2019-05-12T20:15:01.357Z,14.49
2019-05-12T20:17:33.916Z,14.30
2019-05-12T20:20:06.334Z,14.22
2019-05-12T20:22:37.921Z,14.07
2019-05-12T20:25:08.572Z,14.08
2019-05-12T20:27:39.891Z,14.13
2019-05-12T20:30:18.723Z,13.94
2019-05-12T20:32:44.740Z,13.89
2019-05-12T20:35:15.344Z,13.88
2019-05-12T20:37:52.919Z,13.85
2019-05-12T20:40:18.025Z,13.80
2019-05-12T20:43:07.261Z,13.85
2019-05-12T20:45:25.822Z,13.67
2019-05-12T20:47:55.180Z,13.62
2019-05-12T20:50:32.704Z,13.59
2019-05-12T20:52:59.188Z,13.54
2019-05-12T20:55:35.557Z,13.48
2019-05-12T20:58:04.480Z,13.46
2019-05-12T21:00:38.926Z,13.43
2019-05-12T21:03:08.891Z,13.44
2019-05-12T21:05:40.744Z,13.32
2019-05-12T21:08:15.237Z,13.16
2019-05-12T21:10:44.765Z,13.19
2019-05-12T21:13:20.244Z,13.31
2019-05-12T21:15:48.648Z,13.09
2019-05-12T21:18:20.249Z,13.01
2019-05-12T21:20:52.149Z,13.02
2019-05-12T21:23:24.169Z,13.07
2019-05-12T21:25:58.220Z,12.93
2019-05-12T21:28:27.058Z,12.94
2019-05-12T21:30:57.761Z,12.94
2019-05-12T21:33:31.314Z,12.91
2019-05-12T21:36:03.676Z,12.70
2019-05-12T21:38:34.624Z,12.82
2019-05-12T21:41:08.095Z,12.74
2019-05-12T21:43:37.654Z,12.72
2019-05-12T21:46:12.465Z,12.50
2019-05-12T21:48:41.545Z,12.32
2019-05-12T21:51:16.462Z,12.54
2019-05-12T21:53:50.509Z,12.62
2019-05-12T21:56:17.734Z,12.47
2019-05-12T21:58:53.711Z,12.51
2019-05-12T22:01:20.505Z,12.45
2019-05-12T22:03:58.077Z,12.45
2019-05-12T22:06:25.044Z,12.35
2019-05-12T22:09:04.900Z,12.42
2019-05-12T22:11:35.348Z,12.34
2019-05-12T22:14:07.498Z,12.33
2019-05-12T22:16:43.540Z,12.31
2019-05-12T22:19:11.931Z,12.22
2019-05-12T22:21:49.090Z,12.21
2019-05-12T22:24:16.720Z,12.29
2019-05-12T22:26:47.182Z,12.20
2019-05-12T22:29:21.260Z,12.12
2019-05-12T22:31:49.987Z,12.04
2019-05-12T22:34:27.575Z,12.02
2019-05-12T22:36:57.615Z,11.97
2019-05-12T22:39:26.886Z,11.92
2019-05-12T22:41:57.577Z,11.91
2019-05-12T22:44:28.347Z,11.90
2019-05-12T22:47:04.243Z,11.83
2019-05-12T22:49:33.903Z,11.83
2019-05-12T22:52:07.060Z,11.72
2019-05-12T22:54:40.681Z,11.71
2019-05-12T22:57:10.508Z,11.62
2019-05-12T22:59:42.667Z,11.58
2019-05-12T23:02:15.963Z,11.58
2019-05-12T23:04:46.632Z,11.55
2019-05-12T23:07:19.168Z,11.55
2019-05-12T23:09:49.197Z,11.54
2019-05-12T23:12:20.249Z,11.43
2019-05-12T23:14:56.838Z,11.43
2019-05-12T23:17:25.788Z,11.35
2019-05-12T23:19:57.407Z,11.32
2019-05-12T23:22:29.378Z,11.33
2019-05-12T23:25:03.998Z,11.23
2019-05-12T23:27:33.959Z,11.17
2019-05-12T23:30:11.127Z,11.09
2019-05-12T23:32:45.263Z,11.10
2019-05-12T23:35:14.472Z,10.96
2019-05-12T23:37:46.141Z,11.00
2019-05-12T23:40:17.027Z,10.95
2019-05-12T23:42:47.351Z,10.92
2019-05-12T23:45:18.343Z,10.92
2019-05-12T23:47:48.656Z,10.94
2019-05-12T23:50:19.910Z,10.86
2019-05-12T23:52:50.655Z,10.91
2019-05-12T23:55:24.101Z,10.90
2019-05-12T23:57:54.515Z,10.83
